Time;durP1;ratioP1;P1;durP2;ratioP2;P2;SDS_P1;SDS_P2;PMS_P1;PMS_P2;Temp;Humidity;BMP_temperature;BMP_pressure;BME280_temperature;BME280_humidity;BME280_pressure;Samples;Min_cycle;Max_cycle;Signal;HPM_P1;HPM_P2
2022/11/03 00:01:09;;;;;;;45.17;42.43;;;9.00;92.60;;;;;;5021960;28;20567;-73
2022/11/03 00:03:37;;;;;;;35.53;33.00;;;9.00;92.60;;;;;;5023455;28;20469;-73
2022/11/03 00:06:04;;;;;;;27.50;25.50;;;9.00;92.60;;;;;;5020407;28;20472;-74
2022/11/03 00:08:31;;;;;;;22.53;20.90;;;9.00;92.60;;;;;;5018953;28;20457;-73
2022/11/03 00:11:02;;;;;;;22.03;19.80;;;9.00;92.80;;;;;;5023377;28;20455;-74
2022/11/03 00:13:29;;;;;;;21.07;19.47;;;9.00;92.60;;;;;;5024493;28;20544;-73
2022/11/03 00:15:56;;;;;;;20.77;19.17;;;9.00;92.80;;;;;;5019518;28;20557;-73
2022/11/03 00:18:23;;;;;;;20.33;18.40;;;9.00;92.80;;;;;;5012611;28;20570;-73
2022/11/03 00:20:57;;;;;;;23.02;20.88;;;9.00;92.90;;;;;;5020269;28;20572;-73
2022/11/03 00:23:26;;;;;;;22.23;20.17;;;8.90;93.10;;;;;;5016042;28;20215;-73
2022/11/03 00:25:53;;;;;;;25.80;23.77;;;8.90;92.90;;;;;;5013274;28;20344;-73
2022/11/03 00:28:20;;;;;;;24.47;22.67;;;8.90;93.00;;;;;;5010977;28;21013;-73
2022/11/03 00:30:47;;;;;;;23.73;21.93;;;8.90;93.20;;;;;;5024438;28;20548;-73
2022/11/03 00:33:14;;;;;;;20.70;19.20;;;8.80;93.10;;;;;;5025352;28;20457;-73
2022/11/03 00:35:41;;;;;;;21.30;19.50;;;8.80;93.20;;;;;;5024086;28;20498;-73
2022/11/03 00:38:09;;;;;;;22.13;20.17;;;8.90;92.90;;;;;;5020438;28;20530;-73
2022/11/03 00:40:36;;;;;;;21.10;19.60;;;8.80;92.90;;;;;;5022206;28;20598;-73
2022/11/03 00:43:03;;;;;;;21.57;19.70;;;8.80;93.00;;;;;;5016430;28;20472;-73
2022/11/03 00:45:30;;;;;;;21.93;20.13;;;8.90;92.70;;;;;;5024240;28;20481;-73
2022/11/03 00:50:41;;;;;;;20.90;19.37;;;8.70;92.90;;;;;;5011877;28;20474;-72
2022/11/03 00:53:10;;;;;;;22.37;20.47;;;8.70;93.20;;;;;;5018984;28;20540;-73
2022/11/03 00:55:36;;;;;;;23.67;21.52;;;8.70;93.40;;;;;;5022726;28;21039;-73
2022/11/03 00:58:03;;;;;;;21.23;19.40;;;8.60;93.40;;;;;;5021833;28;20210;-73
2022/11/03 01:00:30;;;;;;;21.93;19.90;;;8.60;93.40;;;;;;5014289;28;20224;-73
2022/11/03 01:02:57;;;;;;;21.65;20.25;;;8.60;93.50;;;;;;5014345;28;20458;-73
2022/11/03 01:08:10;;;;;;;22.38;20.23;;;8.70;92.80;;;;;;5017788;28;20460;-73
2022/11/03 01:11:42;;;;;;;22.67;20.30;;;8.60;93.20;;;;;;5029079;28;20296;-73
2022/11/03 01:13:25;;;;;;;20.25;18.75;;;8.60;93.20;;;;;;5025589;28;20193;-73
2022/11/03 01:15:52;;;;;;;21.15;19.55;;;8.60;93.20;;;;;;5023802;28;20316;-73
2022/11/03 01:18:19;;;;;;;21.48;19.45;;;8.50;93.60;;;;;;5015963;28;20227;-73
2022/11/03 01:20:46;;;;;;;22.13;20.23;;;8.50;93.70;;;;;;5017621;28;20218;-73
2022/11/03 01:23:14;;;;;;;22.77;20.70;;;8.40;93.70;;;;;;5024260;28;20290;-73
2022/11/03 01:25:41;;;;;;;21.17;19.58;;;8.50;93.60;;;;;;5023248;28;20299;-73
2022/11/03 01:28:08;;;;;;;21.05;19.20;;;8.50;93.20;;;;;;5022092;28;20197;-73
2022/11/03 01:30:34;;;;;;;21.08;19.30;;;8.40;93.40;;;;;;5023085;28;20199;-73
2022/11/03 01:33:01;;;;;;;20.67;19.27;;;8.40;93.80;;;;;;5025310;28;20913;-72
2022/11/03 01:35:28;;;;;;;20.83;19.23;;;8.30;94.10;;;;;;5022381;28;20224;-73
2022/11/03 01:37:56;;;;;;;21.38;19.45;;;8.40;93.70;;;;;;5027716;28;20208;-73
2022/11/03 01:40:24;;;;;;;21.20;19.50;;;8.30;93.70;;;;;;5026903;28;20224;-73
2022/11/03 01:42:51;;;;;;;20.65;19.33;;;8.30;93.40;;;;;;5027584;28;20281;-73
2022/11/03 01:45:18;;;;;;;22.05;20.17;;;8.20;93.50;;;;;;5025208;28;20599;-73
2022/11/03 01:47:46;;;;;;;22.63;20.52;;;8.20;93.90;;;;;;5016696;28;20280;-72
2022/11/03 01:50:17;;;;;;;21.83;19.98;;;8.10;94.10;;;;;;5019440;28;20197;-73
2022/11/03 01:52:48;;;;;;;21.40;19.88;;;8.20;93.60;;;;;;5022473;28;20206;-73
2022/11/03 01:55:18;;;;;;;22.50;20.65;;;8.20;93.50;;;;;;5026401;28;20830;-73
2022/11/03 01:57:49;;;;;;;21.02;19.35;;;8.20;93.30;;;;;;5020942;28;20654;-74
2022/11/03 02:00:16;;;;;;;21.10;19.35;;;8.20;93.40;;;;;;5021349;28;20356;-74
2022/11/03 02:02:44;;;;;;;21.50;19.67;;;8.10;93.50;;;;;;5023668;28;20228;-74
2022/11/03 02:05:13;;;;;;;20.95;18.98;;;8.00;94.00;;;;;;5020154;28;20721;-74
2022/11/03 02:07:46;;;;;;;20.13;18.45;;;8.00;94.00;;;;;;5018840;28;20256;-74
2022/11/03 02:10:13;;;;;;;22.23;20.30;;;7.90;94.20;;;;;;5011826;28;20224;-74
2022/11/03 02:12:41;;;;;;;20.58;19.08;;;8.00;94.00;;;;;;5026442;28;20212;-73
2022/11/03 02:15:13;;;;;;;21.17;19.40;;;8.00;93.80;;;;;;5025663;28;20305;-73
2022/11/03 02:17:42;;;;;;;21.55;19.95;;;8.10;93.70;;;;;;5022216;28;21055;-74
2022/11/03 02:20:13;;;;;;;20.88;19.33;;;8.10;93.40;;;;;;5025487;28;20305;-74
2022/11/03 02:23:06;;;;;;;20.58;18.73;;;8.10;93.50;;;;;;5026816;28;20213;-74
2022/11/03 02:25:43;;;;;;;20.00;18.10;;;8.10;93.50;;;;;;5017869;28;21022;-74
2022/11/03 02:28:12;;;;;;;20.00;18.60;;;8.00;93.60;;;;;;5021267;28;20289;-74
2022/11/03 02:30:43;;;;;;;19.48;18.08;;;8.00;93.60;;;;;;5023698;28;20599;-74
2022/11/03 02:33:20;;;;;;;20.35;18.75;;;7.90;93.90;;;;;;5023710;28;20288;-74
2022/11/03 02:35:52;;;;;;;21.02;18.77;;;7.90;94.20;;;;;;5019079;28;20209;-74
2022/11/03 02:38:21;;;;;;;25.85;19.55;;;7.90;94.10;;;;;;5025052;28;20206;-73
2022/11/03 02:40:54;;;;;;;20.95;19.17;;;7.90;93.80;;;;;;5024315;28;20305;-74
2022/11/03 02:43:23;;;;;;;21.33;19.48;;;8.00;93.70;;;;;;5023837;28;20281;-74
2022/11/03 02:45:52;;;;;;;19.95;18.50;;;7.90;93.70;;;;;;5020350;28;20213;-73
2022/11/03 02:48:19;;;;;;;21.42;19.30;;;7.80;94.00;;;;;;5015981;28;20294;-73
2022/11/03 02:50:48;;;;;;;20.77;19.00;;;7.80;94.00;;;;;;5015780;28;20280;-74
2022/11/03 02:53:16;;;;;;;18.30;16.75;;;7.80;93.80;;;;;;5024387;28;20214;-74
2022/11/03 02:55:53;;;;;;;18.95;17.63;;;7.80;94.00;;;;;;5017138;28;20309;-74
2022/11/03 02:58:24;;;;;;;19.42;18.08;;;7.80;94.00;;;;;;5018233;28;20197;-73
2022/11/03 03:00:56;;;;;;;18.95;17.23;;;7.70;94.20;;;;;;5018827;28;20217;-74
2022/11/03 03:03:27;;;;;;;18.63;17.05;;;7.70;94.40;;;;;;5022556;28;20285;-74
2022/11/03 03:05:59;;;;;;;19.85;18.35;;;7.70;94.70;;;;;;5022326;28;20227;-74
2022/11/03 03:08:27;;;;;;;19.02;17.52;;;7.70;94.90;;;;;;5019745;28;20193;-74
2022/11/03 03:10:57;;;;;;;19.15;17.85;;;7.80;94.70;;;;;;5021576;28;20296;-74
2022/11/03 03:13:24;;;;;;;21.95;20.10;;;7.70;94.40;;;;;;5021437;28;20197;-74
2022/11/03 03:16:04;;;;;;;21.40;18.33;;;7.70;94.40;;;;;;5023057;28;20236;-74
2022/11/03 03:18:39;;;;;;;21.05;18.98;;;7.70;94.30;;;;;;5016480;28;20202;-74
2022/11/03 03:21:12;;;;;;;25.30;23.77;;;7.70;94.30;;;;;;5022226;28;20238;-73
2022/11/03 03:23:48;;;;;;;18.70;17.40;;;7.70;94.30;;;;;;5018120;28;20682;-74
2022/11/03 03:26:22;;;;;;;19.75;18.33;;;7.70;94.60;;;;;;5014735;28;20224;-74
2022/11/03 03:28:53;;;;;;;20.52;18.95;;;7.70;94.80;;;;;;5019546;28;20225;-74
2022/11/03 03:31:22;;;;;;;18.27;16.85;;;7.70;94.90;;;;;;5012505;28;20289;-74
2022/11/03 03:33:52;;;;;;;19.23;17.50;;;7.70;95.00;;;;;;5023529;28;20245;-74
2022/11/03 03:36:21;;;;;;;20.38;17.40;;;7.80;94.90;;;;;;5025138;28;20320;-74
2022/11/03 03:38:54;;;;;;;26.17;24.23;;;7.70;95.00;;;;;;5021313;28;20205;-74
2022/11/03 03:41:25;;;;;;;20.50;19.10;;;7.60;95.20;;;;;;5021609;28;20308;-74
2022/11/03 03:43:55;;;;;;;22.13;20.48;;;7.70;95.40;;;;;;5008788;28;20287;-74
2022/11/03 03:46:25;;;;;;;19.00;17.60;;;7.70;95.30;;;;;;5014101;28;20847;-74
2022/11/03 03:48:52;;;;;;;20.85;19.40;;;7.70;95.20;;;;;;5021203;28;20277;-74
2022/11/03 03:51:24;;;;;;;20.95;19.42;;;7.80;95.10;;;;;;5020863;28;20194;-75
2022/11/03 03:53:52;;;;;;;27.77;25.73;;;7.80;94.80;;;;;;5015776;28;20637;-73
2022/11/03 03:56:26;;;;;;;21.17;19.17;;;7.80;94.70;;;;;;5022318;28;20296;-72
2022/11/03 03:58:53;;;;;;;32.92;30.92;;;7.70;95.00;;;;;;5018447;28;20198;-73
2022/11/03 04:01:20;;;;;;;21.45;19.92;;;7.80;95.20;;;;;;5025199;28;20304;-73
2022/11/03 04:03:47;;;;;;;31.27;29.45;;;7.80;95.00;;;;;;5024611;28;20276;-72
2022/11/03 04:06:13;;;;;;;21.33;19.80;;;7.80;94.90;;;;;;5013384;28;20228;-72
2022/11/03 04:08:40;;;;;;;23.10;21.40;;;7.90;94.50;;;;;;5021138;28;20208;-72
2022/11/03 04:24:52;;;;;;;25.63;24.00;;;7.70;95.80;;;;;;5022371;28;20236;-72
2022/11/03 04:27:28;;;;;;;28.17;26.38;;;7.70;95.70;;;;;;5020677;28;20304;-72
2022/11/03 04:29:59;;;;;;;33.72;31.88;;;7.80;95.60;;;;;;5022400;28;20200;-73
2022/11/03 04:32:26;;;;;;;20.63;19.02;;;7.80;95.40;;;;;;5016614;28;20200;-73
2022/11/03 04:34:54;;;;;;;26.08;24.40;;;7.80;95.50;;;;;;5023653;28;20631;-73
2022/11/03 04:37:21;;;;;;;21.15;19.85;;;7.80;95.20;;;;;;5029687;28;20193;-73
2022/11/03 04:39:48;;;;;;;30.92;28.92;;;7.80;95.30;;;;;;5024506;28;20280;-74
2022/11/03 04:42:19;;;;;;;34.50;32.28;;;7.80;95.30;;;;;;5023177;28;21023;-74
2022/11/03 04:44:46;;;;;;;26.48;24.65;;;7.80;95.50;;;;;;5021912;28;20285;-74
2022/11/03 04:47:17;;;;;;;29.08;27.10;;;7.80;95.20;;;;;;5027627;28;20296;-74
2022/11/03 04:49:44;;;;;;;22.45;20.40;;;7.90;94.60;;;;;;5020379;28;20206;-74
2022/11/03 04:52:16;;;;;;;22.38;20.85;;;7.80;94.80;;;;;;5026112;28;20278;-74
2022/11/03 04:54:43;;;;;;;36.30;33.95;;;7.80;94.70;;;;;;5025131;28;20221;-74
2022/11/03 04:57:13;;;;;;;32.90;30.88;;;7.90;94.50;;;;;;5017695;28;20204;-74
2022/11/03 04:59:41;;;;;;;22.55;20.73;;;7.90;94.60;;;;;;5020562;28;20733;-74
2022/11/03 05:02:12;;;;;;;26.98;25.33;;;7.80;94.70;;;;;;5024116;28;20750;-74
2022/11/03 05:04:41;;;;;;;22.48;20.90;;;7.80;94.70;;;;;;5024557;28;20334;-74
2022/11/03 05:07:19;;;;;;;19.42;18.08;;;7.80;94.40;;;;;;5028187;28;20202;-74
2022/11/03 05:09:46;;;;;;;19.42;18.15;;;7.80;94.10;;;;;;5025432;28;20212;-73
2022/11/03 05:12:13;;;;;;;21.27;19.88;;;7.80;94.10;;;;;;5027530;28;20280;-74
2022/11/03 05:14:40;;;;;;;28.95;27.17;;;7.80;94.10;;;;;;5023724;28;20202;-74
2022/11/03 05:17:18;;;;;;;38.10;36.20;;;7.70;94.20;;;;;;5024015;28;20280;-74
2022/11/03 05:19:46;;;;;;;21.15;19.55;;;7.70;94.20;;;;;;5025132;28;20205;-74
2022/11/03 05:22:16;;;;;;;32.25;30.15;;;7.60;94.20;;;;;;5022341;28;20318;-73
2022/11/03 05:24:44;;;;;;;22.50;20.90;;;7.60;94.30;;;;;;5025480;28;20197;-74
2022/11/03 05:27:16;;;;;;;29.33;27.30;;;7.60;94.20;;;;;;5028024;28;20193;-74
2022/11/03 05:29:43;;;;;;;25.73;23.83;;;7.60;94.50;;;;;;5026449;28;20458;-72
2022/11/03 05:32:14;;;;;;;28.02;26.27;;;7.50;94.80;;;;;;5027476;28;20637;-74
2022/11/03 05:34:43;;;;;;;25.73;23.92;;;7.50;94.90;;;;;;5027488;28;20558;-77
2022/11/03 05:37:23;;;;;;;22.17;20.58;;;7.50;94.80;;;;;;5027492;28;20208;-74
2022/11/03 05:39:51;;;;;;;24.17;22.17;;;7.50;94.90;;;;;;5021873;28;20201;-74
2022/11/03 05:42:27;;;;;;;36.45;34.20;;;7.40;95.10;;;;;;5024084;28;20341;-73
2022/11/03 05:44:55;;;;;;;20.75;19.17;;;7.50;95.10;;;;;;5022274;28;20328;-74
2022/11/03 05:47:24;;;;;;;31.38;29.42;;;7.40;95.00;;;;;;5020186;28;20214;-77
2022/11/03 05:49:56;;;;;;;22.27;20.48;;;7.40;95.00;;;;;;5019613;28;20245;-77
2022/11/03 05:52:27;;;;;;;21.35;19.75;;;7.40;95.20;;;;;;5018909;28;20200;-86
2022/11/03 05:54:57;;;;;;;27.67;25.63;;;7.50;95.00;;;;;;5018512;28;20246;-79
2022/11/03 05:57:25;;;;;;;27.10;24.92;;;7.40;94.90;;;;;;5024641;28;20543;-75
2022/11/03 05:59:52;;;;;;;21.92;20.50;;;7.50;94.90;;;;;;5018298;28;20194;-75
2022/11/03 06:02:33;;;;;;;22.42;20.38;;;7.50;94.70;;;;;;5022839;28;20818;-75
2022/11/03 06:05:00;;;;;;;23.10;21.70;;;7.50;94.60;;;;;;5015563;28;20235;-78
2022/11/03 06:07:31;;;;;;;20.95;19.45;;;7.50;94.40;;;;;;5022617;28;20199;-76
2022/11/03 06:09:59;;;;;;;35.65;33.30;;;7.50;94.40;;;;;;5028828;28;20281;-77
2022/11/03 06:12:29;;;;;;;34.05;32.05;;;7.50;94.20;;;;;;5023404;28;20284;-77
2022/11/03 06:14:56;;;;;;;23.10;21.25;;;7.40;94.40;;;;;;5020561;28;20217;-76
2022/11/03 06:17:25;;;;;;;31.58;29.73;;;7.40;94.30;;;;;;5023856;28;20257;-79
2022/11/03 06:19:55;;;;;;;33.90;32.13;;;7.30;94.40;;;;;;5026286;28;20255;-77
2022/11/03 06:22:25;;;;;;;20.75;18.95;;;7.30;94.60;;;;;;5019220;28;20228;-77
2022/11/03 06:24:57;;;;;;;24.90;23.17;;;7.30;94.70;;;;;;5022051;28;20193;-79
2022/11/03 06:27:26;;;;;;;26.48;24.88;;;7.30;94.70;;;;;;5027718;28;20290;-79
2022/11/03 06:30:00;;;;;;;20.08;18.77;;;7.30;94.70;;;;;;5025525;28;20288;-79
2022/11/03 06:32:28;;;;;;;27.55;25.27;;;7.30;94.80;;;;;;5019272;28;20549;-78
2022/11/03 06:34:57;;;;;;;23.27;21.27;;;7.50;94.50;;;;;;5022786;28;20294;-80
2022/11/03 06:37:27;;;;;;;33.25;31.10;;;7.60;93.90;;;;;;5024044;28;20281;-79
2022/11/03 06:40:00;;;;;;;25.83;23.80;;;7.50;94.00;;;;;;5022135;28;20245;-79
2022/11/03 06:42:31;;;;;;;22.80;21.25;;;7.60;93.90;;;;;;5024941;28;21706;-81
2022/11/03 06:44:59;;;;;;;24.73;22.70;;;7.60;93.90;;;;;;5032360;28;20739;-81
2022/11/03 06:47:40;;;;;;;35.60;33.35;;;7.80;93.70;;;;;;5036487;28;20228;-81
2022/11/03 06:50:20;;;;;;;21.15;19.63;;;7.90;93.00;;;;;;5016464;28;20240;-79
2022/11/03 06:52:49;;;;;;;27.05;25.33;;;7.90;93.40;;;;;;5014992;28;20193;-83
2022/11/03 06:55:23;;;;;;;23.77;22.08;;;8.00;93.10;;;;;;5031205;28;20248;-81
2022/11/03 06:57:53;;;;;;;36.15;33.90;;;8.00;92.90;;;;;;5029112;28;20283;-84
2022/11/03 07:00:24;;;;;;;25.45;23.75;;;7.90;93.10;;;;;;5035295;28;20217;-84
2022/11/03 07:03:03;;;;;;;24.77;23.27;;;7.90;93.10;;;;;;5033939;28;20222;-84
2022/11/03 07:05:31;;;;;;;31.08;29.02;;;7.90;92.80;;;;;;5037399;28;20256;-81
2022/11/03 07:08:00;;;;;;;24.60;22.83;;;7.90;92.80;;;;;;5040674;28;20205;-81
2022/11/03 07:10:30;;;;;;;31.92;30.02;;;8.00;92.50;;;;;;5034748;28;20292;-78
2022/11/03 07:13:01;;;;;;;30.53;28.67;;;8.10;92.60;;;;;;5018471;28;20194;-80
2022/11/03 07:15:32;;;;;;;31.63;29.83;;;8.20;92.00;;;;;;5019174;28;20513;-81
2022/11/03 07:18:00;;;;;;;23.80;22.23;;;8.30;91.90;;;;;;5020776;28;20679;-81
2022/11/03 07:20:28;;;;;;;38.40;36.20;;;8.40;91.60;;;;;;5018315;28;20278;-81
2022/11/03 07:22:57;;;;;;;37.03;34.72;;;8.60;91.10;;;;;;5016049;28;21109;-80
2022/11/03 07:25:24;;;;;;;23.30;21.80;;;8.70;91.40;;;;;;5009460;28;20302;-77
2022/11/03 07:27:56;;;;;;;31.95;29.55;;;8.80;91.00;;;;;;5011625;28;20204;-81
2022/11/03 07:30:29;;;;;;;26.30;24.15;;;8.90;90.50;;;;;;5025807;28;20332;-79
2022/11/03 07:33:02;;;;;;;37.83;34.80;;;8.90;90.50;;;;;;5023084;28;20340;-79
2022/11/03 07:35:32;;;;;;;31.00;28.70;;;9.00;90.40;;;;;;5029252;28;20482;-80
2022/11/03 07:38:09;;;;;;;26.80;24.80;;;9.10;90.40;;;;;;5027415;28;20545;-79
2022/11/03 07:40:37;;;;;;;29.67;27.77;;;9.20;90.20;;;;;;5025541;28;20508;-78
2022/11/03 07:43:15;;;;;;;38.13;35.40;;;9.30;89.90;;;;;;5025451;28;20487;-81
2022/11/03 07:45:44;;;;;;;26.37;24.50;;;9.40;90.20;;;;;;5009081;28;20986;-77
2022/11/03 07:48:21;;;;;;;36.67;34.53;;;9.50;90.70;;;;;;5015905;28;20475;-77
2022/11/03 07:50:49;;;;;;;27.10;25.27;;;9.70;90.90;;;;;;5027828;28;20791;-78
2022/11/03 07:53:21;;;;;;;34.87;32.57;;;9.80;91.70;;;;;;5020247;28;20463;-78
2022/11/03 07:55:48;;;;;;;31.63;29.50;;;10.00;90.90;;;;;;5022247;28;20476;-78
2022/11/03 07:58:25;;;;;;;25.47;23.57;;;10.10;90.50;;;;;;5008726;28;20479;-78
2022/11/03 08:01:00;;;;;;;35.30;33.50;;;10.20;89.70;;;;;;5016536;28;20461;-78
2022/11/03 08:03:40;;;;;;;35.40;33.40;;;10.30;89.00;;;;;;5016724;28;20485;-77
2022/11/03 08:06:07;;;;;;;26.43;24.93;;;10.40;87.70;;;;;;5014667;28;20483;-77
2022/11/03 08:08:34;;;;;;;23.53;21.97;;;10.50;86.80;;;;;;5021007;28;20558;-79
2022/11/03 08:11:01;;;;;;;36.37;34.33;;;10.60;86.40;;;;;;5012522;28;20474;-78
2022/11/03 08:13:30;;;;;;;33.97;32.10;;;10.70;86.50;;;;;;5012476;28;20453;-77
2022/11/03 08:15:56;;;;;;;35.43;33.37;;;10.70;88.90;;;;;;5013874;28;20495;-77
2022/11/03 08:18:23;;;;;;;33.23;31.23;;;10.80;87.60;;;;;;5027313;28;20460;-76
2022/11/03 08:20:51;;;;;;;25.60;23.80;;;10.80;87.00;;;;;;5031190;28;20524;-78
2022/11/03 08:23:18;;;;;;;25.67;24.03;;;10.90;86.70;;;;;;5023516;28;20618;-76
2022/11/03 08:25:45;;;;;;;26.87;25.03;;;11.00;86.80;;;;;;5027419;28;20991;-77
2022/11/03 08:28:12;;;;;;;28.60;26.53;;;11.10;86.40;;;;;;5028369;28;20464;-76
2022/11/03 08:30:41;;;;;;;37.17;34.97;;;11.20;85.90;;;;;;5028820;28;20558;-78
2022/11/03 08:33:08;;;;;;;26.80;25.10;;;11.30;85.20;;;;;;5041045;28;20455;-76
2022/11/03 08:35:35;;;;;;;33.97;32.03;;;11.40;84.10;;;;;;5030305;28;20463;-77
2022/11/03 08:38:02;;;;;;;26.10;24.30;;;11.40;84.10;;;;;;5029312;28;20457;-82
2022/11/03 08:40:28;;;;;;;35.17;33.17;;;11.50;84.10;;;;;;5025978;28;20467;-78
2022/11/03 08:42:55;;;;;;;25.00;23.47;;;11.60;84.70;;;;;;5029616;28;20570;-77
2022/11/03 08:45:23;;;;;;;32.10;30.27;;;11.70;85.20;;;;;;5028709;28;20485;-77
2022/11/03 08:47:51;;;;;;;27.70;25.90;;;11.90;84.20;;;;;;5022993;28;20461;-77
2022/11/03 08:50:18;;;;;;;44.13;41.70;;;12.10;83.30;;;;;;5028724;28;20586;-77
2022/11/03 08:52:48;;;;;;;40.10;37.70;;;12.20;82.30;;;;;;5031289;28;20456;-77
2022/11/03 08:55:15;;;;;;;30.83;29.03;;;12.30;81.80;;;;;;5028554;28;20511;-77
2022/11/03 08:57:42;;;;;;;31.07;29.47;;;12.40;82.00;;;;;;5028231;28;20466;-77
2022/11/03 09:00:11;;;;;;;47.10;44.60;;;12.60;81.80;;;;;;5022429;28;20483;-78
2022/11/03 09:02:38;;;;;;;32.90;30.83;;;12.70;80.80;;;;;;5030527;28;20476;-77
2022/11/03 09:05:07;;;;;;;34.17;32.33;;;12.90;80.30;;;;;;5019494;28;20859;-77
2022/11/03 09:07:34;;;;;;;34.27;32.47;;;12.90;80.70;;;;;;5025694;28;20464;-78
2022/11/03 09:10:01;;;;;;;32.10;30.20;;;13.00;79.90;;;;;;5018607;28;20547;-78
2022/11/03 09:12:28;;;;;;;33.00;31.10;;;13.10;79.80;;;;;;5014377;28;20540;-79
2022/11/03 09:14:55;;;;;;;40.67;38.50;;;13.10;79.40;;;;;;5028298;28;20926;-83
2022/11/03 09:17:22;;;;;;;33.50;31.67;;;13.30;78.20;;;;;;5019802;28;20554;-79
2022/11/03 09:19:49;;;;;;;34.27;32.37;;;13.40;78.00;;;;;;5022135;28;21042;-80
2022/11/03 09:22:17;;;;;;;33.60;31.60;;;13.40;77.90;;;;;;5022221;28;20551;-78
2022/11/03 09:24:44;;;;;;;34.23;32.40;;;13.50;77.30;;;;;;5011716;28;20464;-78
2022/11/03 09:27:11;;;;;;;35.30;33.60;;;13.60;76.60;;;;;;5025852;28;20961;-79
2022/11/03 09:29:37;;;;;;;39.30;37.13;;;13.70;76.50;;;;;;5023021;28;20482;-78
2022/11/03 09:32:06;;;;;;;32.33;30.53;;;13.90;75.40;;;;;;5024024;28;20468;-77
2022/11/03 09:34:33;;;;;;;30.77;28.97;;;14.00;75.20;;;;;;5023834;28;20462;-77
2022/11/03 09:37:03;;;;;;;36.57;34.57;;;13.90;74.70;;;;;;5020769;28;20851;-77
2022/11/03 09:39:32;;;;;;;41.33;39.30;;;14.00;74.90;;;;;;5020121;28;20470;-77
2022/11/03 09:42:02;;;;;;;35.87;34.10;;;14.00;74.80;;;;;;5026633;28;20466;-77
2022/11/03 09:44:34;;;;;;;40.60;38.23;;;14.10;75.00;;;;;;5024417;28;20451;-78
2022/11/03 09:47:02;;;;;;;34.13;32.13;;;14.20;74.50;;;;;;5013623;28;20456;-76
2022/11/03 09:49:31;;;;;;;35.70;34.00;;;14.30;74.10;;;;;;5028235;28;20953;-77
2022/11/03 09:52:01;;;;;;;40.07;37.57;;;14.50;73.80;;;;;;5026667;28;20455;-77
2022/11/03 09:54:29;;;;;;;36.90;34.90;;;14.60;73.50;;;;;;5020025;28;20471;-78
2022/11/03 09:57:02;;;;;;;33.70;32.00;;;14.70;73.30;;;;;;5027157;28;20479;-78
2022/11/03 09:59:30;;;;;;;34.37;32.67;;;14.70;72.80;;;;;;5010846;28;20593;-79
2022/11/03 10:01:58;;;;;;;30.63;29.07;;;14.70;72.90;;;;;;5012554;28;20459;-81
2022/11/03 10:04:27;;;;;;;28.53;27.10;;;14.70;72.90;;;;;;5023288;28;20472;-76
2022/11/03 10:06:55;;;;;;;36.57;34.57;;;14.70;72.70;;;;;;5017537;28;20480;-77
2022/11/03 10:09:24;;;;;;;31.60;29.70;;;14.90;72.60;;;;;;5013782;28;20560;-78
2022/11/03 10:11:53;;;;;;;39.47;37.30;;;15.00;72.20;;;;;;5018892;28;20951;-77
2022/11/03 10:14:22;;;;;;;37.20;35.10;;;15.00;71.60;;;;;;5028203;28;20533;-77
2022/11/03 10:16:53;;;;;;;38.30;36.40;;;15.00;72.20;;;;;;5026978;28;20563;-77
2022/11/03 10:19:20;;;;;;;44.23;42.03;;;15.00;72.60;;;;;;5025518;28;20582;-78
2022/11/03 10:21:47;;;;;;;40.73;38.53;;;15.00;72.70;;;;;;5026328;28;20472;-81
2022/11/03 10:24:14;;;;;;;34.33;32.60;;;15.00;72.40;;;;;;5028300;28;20558;-80
2022/11/03 10:26:46;;;;;;;29.53;27.77;;;15.10;72.00;;;;;;5029919;28;20591;-79
2022/11/03 10:29:22;;;;;;;33.57;31.87;;;15.10;72.00;;;;;;5028043;28;20502;-79
2022/11/03 10:31:52;;;;;;;32.20;30.43;;;15.10;72.70;;;;;;5024653;28;20878;-78
2022/11/03 10:34:33;;;;;;;30.80;29.17;;;15.10;72.60;;;;;;5022977;28;20465;-78
2022/11/03 10:37:19;;;;;;;33.40;31.57;;;15.20;72.50;;;;;;5018513;28;21248;-79
2022/11/03 10:39:46;;;;;;;34.50;32.57;;;15.30;71.90;;;;;;5022872;28;20456;-79
2022/11/03 10:42:24;;;;;;;34.87;32.97;;;15.30;72.10;;;;;;5026619;28;20464;-81
2022/11/03 10:44:54;;;;;;;33.33;31.40;;;15.40;72.90;;;;;;5016587;28;20452;-79
2022/11/03 10:47:31;;;;;;;35.30;33.57;;;15.50;71.20;;;;;;5025559;28;20536;-77
2022/11/03 10:49:58;;;;;;;30.77;29.20;;;15.50;71.50;;;;;;5018692;28;22534;-78
2022/11/03 10:52:28;;;;;;;33.87;31.97;;;15.40;72.10;;;;;;5020425;28;20570;-78
2022/11/03 10:54:59;;;;;;;37.20;35.37;;;15.50;72.10;;;;;;5017599;28;20517;-76
2022/11/03 10:57:27;;;;;;;38.87;36.87;;;15.60;71.10;;;;;;5028168;28;20488;-76
2022/11/03 10:59:57;;;;;;;40.17;38.07;;;15.70;71.10;;;;;;5025692;28;20985;-77
2022/11/03 11:02:26;;;;;;;40.30;38.43;;;15.80;70.60;;;;;;5023137;28;20826;-77
2022/11/03 11:04:58;;;;;;;44.40;42.03;;;15.80;70.60;;;;;;5016869;28;20554;-76
2022/11/03 11:07:32;;;;;;;36.33;34.63;;;16.00;69.70;;;;;;5018441;28;20878;-76
2022/11/03 11:10:06;;;;;;;31.97;30.17;;;15.90;70.20;;;;;;5020283;28;20534;-76
2022/11/03 11:12:33;;;;;;;34.60;32.60;;;15.90;69.90;;;;;;5025438;28;20545;-76
2022/11/03 11:15:06;;;;;;;45.53;43.17;;;15.90;69.90;;;;;;5022771;28;20759;-77
2022/11/03 11:17:50;;;;;;;35.90;34.10;;;15.80;70.20;;;;;;5028648;28;20459;-76
2022/11/03 11:20:36;;;;;;;38.73;36.77;;;15.90;69.60;;;;;;5025499;28;20462;-76
2022/11/03 11:23:51;;;;;;;45.27;43.00;;;15.80;69.70;;;;;;5022279;28;20516;-76
2022/11/03 11:26:31;;;;;;;39.87;37.67;;;16.00;69.70;;;;;;5018643;28;20475;-76
2022/11/03 11:29:41;;;;;;;37.63;35.40;;;16.10;69.20;;;;;;5019168;28;20459;-76
2022/11/03 11:32:51;;;;;;;36.47;34.30;;;16.10;69.10;;;;;;5021254;28;20471;-77
2022/11/03 11:36:06;;;;;;;31.77;30.27;;;16.10;69.30;;;;;;5017289;28;20853;-76
2022/11/03 11:39:12;;;;;;;41.53;39.47;;;15.80;69.70;;;;;;5021620;28;20464;-76
2022/11/03 11:42:10;;;;;;;45.73;43.50;;;15.70;70.40;;;;;;5023336;28;20546;-78
2022/11/03 11:44:52;;;;;;;43.57;41.43;;;15.60;70.60;;;;;;5024822;28;20483;-77
2022/11/03 11:47:32;;;;;;;40.67;38.57;;;15.60;70.70;;;;;;5025706;28;20573;-77
2022/11/03 11:50:30;;;;;;;29.90;28.00;;;15.70;70.70;;;;;;5023564;28;20543;-77
2022/11/03 11:53:00;;;;;;;39.13;37.03;;;15.60;70.80;;;;;;5024761;28;20448;-80
2022/11/03 11:55:40;;;;;;;35.17;33.50;;;15.60;71.30;;;;;;5020529;28;20479;-77
2022/11/03 11:58:15;;;;;;;44.43;41.80;;;15.70;70.60;;;;;;5020994;28;20468;-76
2022/11/03 12:00:55;;;;;;;32.37;30.87;;;15.80;71.10;;;;;;5023462;28;20516;-76
2022/11/03 12:03:37;;;;;;;48.00;45.50;;;15.90;70.90;;;;;;5022446;28;20516;-76
2022/11/03 12:06:04;;;;;;;37.13;35.37;;;16.10;70.20;;;;;;5027364;28;20512;-81
2022/11/03 12:08:32;;;;;;;38.07;35.93;;;16.10;70.10;;;;;;5023675;28;20456;-76
2022/11/03 12:11:02;;;;;;;44.13;41.83;;;16.20;70.00;;;;;;5020971;28;20543;-77
2022/11/03 12:13:46;;;;;;;30.70;29.00;;;16.20;70.20;;;;;;5022760;28;20530;-74
2022/11/03 12:16:31;;;;;;;34.67;32.83;;;16.20;70.30;;;;;;5020606;28;20489;-77
2022/11/03 12:19:37;;;;;;;30.90;29.30;;;16.30;70.10;;;;;;5026950;28;20460;-76
2022/11/03 12:22:06;;;;;;;31.23;29.27;;;16.40;69.30;;;;;;5019705;28;20470;-77
2022/11/03 12:24:50;;;;;;;32.23;30.43;;;16.40;68.50;;;;;;5020747;28;20599;-77
2022/11/03 12:27:35;;;;;;;37.20;35.13;;;16.30;68.90;;;;;;5015482;28;20542;-75
2022/11/03 12:30:06;;;;;;;35.80;33.83;;;16.30;69.40;;;;;;5013919;28;20456;-76
2022/11/03 12:32:33;;;;;;;41.37;39.43;;;16.30;69.10;;;;;;5022379;28;20969;-75
2022/11/03 12:35:00;;;;;;;41.83;39.77;;;16.30;69.30;;;;;;5013487;28;20507;-75
2022/11/03 12:37:27;;;;;;;41.37;39.07;;;16.20;70.10;;;;;;5014928;28;20456;-74
2022/11/03 12:39:53;;;;;;;31.00;29.17;;;16.00;70.30;;;;;;5020617;28;21033;-74
2022/11/03 12:42:24;;;;;;;29.50;27.60;;;16.00;70.80;;;;;;5021072;28;20456;-74
2022/11/03 12:44:52;;;;;;;38.33;36.30;;;15.90;71.30;;;;;;5013338;28;20475;-74
2022/11/03 12:47:19;;;;;;;38.17;36.23;;;16.00;71.50;;;;;;5023832;28;20534;-74
2022/11/03 12:49:46;;;;;;;32.90;31.03;;;16.00;71.50;;;;;;5022291;28;20547;-74
2022/11/03 12:52:13;;;;;;;31.57;29.77;;;15.90;72.00;;;;;;5021329;28;20884;-74
2022/11/03 12:54:41;;;;;;;33.10;31.40;;;15.90;72.20;;;;;;5024656;28;20458;-74
2022/11/03 12:57:08;;;;;;;37.70;35.60;;;15.90;72.90;;;;;;5026390;28;20483;-74
2022/11/03 12:59:36;;;;;;;33.87;32.17;;;15.80;73.20;;;;;;5027153;28;20461;-74
2022/11/03 13:02:03;;;;;;;28.87;27.47;;;15.80;72.70;;;;;;5021769;28;20897;-74
2022/11/03 13:04:30;;;;;;;27.43;25.87;;;15.90;72.30;;;;;;5026473;28;20470;-74
2022/11/03 13:06:57;;;;;;;38.63;36.33;;;15.90;72.00;;;;;;5028133;28;20578;-74
2022/11/03 13:09:24;;;;;;;30.50;28.80;;;15.90;72.00;;;;;;5025679;28;20579;-74
2022/11/03 13:14:36;;;;;;;29.97;28.47;;;15.90;72.10;;;;;;5011826;28;20533;-74